Time;durP1;ratioP1;P1;durP2;ratioP2;P2;SDS_P1;SDS_P2;PMS_P1;PMS_P2;Temp;Humidity;BMP_temperature;BMP_pressure;BME280_temperature;BME280_humidity;BME280_pressure;Samples;Min_cycle;Max_cycle;Signal;HPM_P1;HPM_P2
2022/07/19 00:00:10;;;;;;;2.85;2.17;;;;;;;19.83;67.84;95117.16;5051690;28;20243;-63
2022/07/19 00:02:39;;;;;;;2.15;1.90;;;;;;;19.85;67.76;95122.94;5051492;28;20182;-63
2022/07/19 00:05:07;;;;;;;2.92;2.13;;;;;;;19.97;67.81;95129.28;5049981;28;20201;-64
2022/07/19 00:07:32;;;;;;;4.13;2.17;;;;;;;20.01;68.16;95127.16;5051307;28;20659;-63
2022/07/19 00:09:58;;;;;;;4.20;2.20;;;;;;;19.93;68.75;95119.50;5051221;28;20205;-62
2022/07/19 00:12:23;;;;;;;2.47;2.22;;;;;;;19.96;68.87;95119.13;5051315;28;20193;-62
2022/07/19 00:14:49;;;;;;;3.97;2.00;;;;;;;19.94;69.42;95121.06;5051177;28;20231;-63
2022/07/19 00:17:14;;;;;;;5.43;2.20;;;;;;;19.90;69.99;95114.66;5051264;28;20655;-62
2022/07/19 00:19:40;;;;;;;2.88;2.15;;;;;;;19.98;69.85;95128.31;5051307;28;20639;-63
2022/07/19 00:22:06;;;;;;;8.52;2.25;;;;;;;20.04;69.89;95130.19;5050844;28;20240;-63
2022/07/19 00:24:32;;;;;;;4.03;2.20;;;;;;;20.16;69.42;95137.50;5051209;28;20621;-63
2022/07/19 00:26:57;;;;;;;3.33;2.15;;;;;;;19.95;70.39;95127.84;5051237;28;20217;-63
2022/07/19 00:29:23;;;;;;;2.40;1.85;;;;;;;19.90;70.78;95123.22;5051030;28;20192;-63
2022/07/19 00:31:48;;;;;;;5.22;2.40;;;;;;;20.08;70.37;95133.22;5051397;28;20217;-63
2022/07/19 00:34:13;;;;;;;5.57;1.98;;;;;;;20.06;70.81;95130.00;5050997;28;20177;-63
2022/07/19 00:36:39;;;;;;;3.17;2.05;;;;;;;20.01;70.81;95122.81;5051153;28;20205;-64
2022/07/19 00:39:05;;;;;;;3.38;2.00;;;;;;;20.21;70.59;95138.59;5049627;28;20182;-63
2022/07/19 00:41:30;;;;;;;3.33;1.75;;;;;;;20.07;71.21;95118.72;5049366;28;20204;-63
2022/07/19 00:43:57;;;;;;;9.18;2.53;;;;;;;19.90;71.88;95119.81;5050860;28;20189;-63
2022/07/19 00:46:22;;;;;;;4.38;2.03;;;;;;;19.75;73.00;95114.66;5049371;28;20310;-62
2022/07/19 00:48:49;;;;;;;2.58;2.05;;;;;;;19.74;73.09;95120.78;5050695;28;20296;-62
2022/07/19 00:51:16;;;;;;;5.05;2.13;;;;;;;19.81;72.96;95126.84;5050611;28;20240;-63
2022/07/19 00:53:44;;;;;;;5.00;2.58;;;;;;;19.70;73.19;95124.69;5050604;28;20204;-63
2022/07/19 00:56:12;;;;;;;7.82;2.20;;;;;;;19.71;73.57;95128.06;5051046;28;20206;-63
2022/07/19 00:58:38;;;;;;;5.07;2.15;;;;;;;19.73;73.61;95116.59;5050623;28;20212;-63
2022/07/19 01:01:06;;;;;;;2.85;2.05;;;;;;;19.80;73.31;95127.81;5050903;28;20350;-63
2022/07/19 01:03:39;;;;;;;3.60;1.88;;;;;;;19.83;73.24;95130.06;5048938;28;20275;-63
2022/07/19 01:06:06;;;;;;;2.17;1.88;;;;;;;19.70;73.82;95116.13;5050613;28;20218;-62
2022/07/19 01:08:32;;;;;;;3.15;2.20;;;;;;;19.59;75.02;95101.06;5049017;28;20687;-64
2022/07/19 01:10:58;;;;;;;3.55;2.20;;;;;;;19.44;75.10;95111.34;5050380;28;20214;-62
2022/07/19 01:13:24;;;;;;;3.25;2.22;;;;;;;19.07;76.73;95108.66;5050294;28;20185;-62
2022/07/19 01:15:50;;;;;;;7.28;2.65;;;;;;;19.18;76.75;95116.00;5050119;28;20596;-62
2022/07/19 01:18:16;;;;;;;2.65;1.90;;;;;;;19.08;77.54;95107.69;5050004;28;20213;-63
2022/07/19 01:20:41;;;;;;;2.80;2.00;;;;;;;19.11;77.71;95118.44;5049701;28;20306;-62
2022/07/19 01:23:07;;;;;;;4.10;2.65;;;;;;;19.43;76.16;95127.81;5048775;28;20189;-61
2022/07/19 01:25:36;;;;;;;2.17;2.03;;;;;;;19.56;75.93;95134.94;5050318;28;20213;-62
2022/07/19 01:28:04;;;;;;;4.13;2.22;;;;;;;19.36;76.25;95120.91;5050141;28;20736;-62
2022/07/19 01:30:29;;;;;;;2.25;2.05;;;;;;;19.41;76.41;95118.63;5050056;28;20271;-64
2022/07/19 01:32:56;;;;;;;7.22;2.25;;;;;;;19.53;75.83;95128.38;5050299;28;20182;-63
2022/07/19 01:35:22;;;;;;;3.95;2.15;;;;;;;19.42;76.41;95108.13;5048870;28;20822;-62
2022/07/19 01:37:48;;;;;;;2.83;2.15;;;;;;;19.37;76.76;95107.84;5048688;28;20184;-62
2022/07/19 01:40:16;;;;;;;4.40;2.25;;;;;;;19.25;77.03;95091.94;5050158;28;20194;-63
2022/07/19 01:42:43;;;;;;;4.07;1.92;;;;;;;19.15;78.08;95103.44;5048669;28;20192;-63
2022/07/19 01:45:10;;;;;;;3.20;1.95;;;;;;;18.95;78.87;95092.78;5032016;28;20583;-62
2022/07/19 01:47:36;;;;;;;4.22;2.13;;;;;;;18.89;79.64;95097.78;5049902;28;20178;-63
2022/07/19 01:50:04;;;;;;;3.63;2.13;;;;;;;18.95;79.83;95102.28;5049817;28;20225;-65
2022/07/19 01:52:30;;;;;;;4.18;2.03;;;;;;;18.83;80.15;95101.03;5049815;28;20182;-64
2022/07/19 01:54:55;;;;;;;2.65;2.08;;;;;;;18.87;80.50;95097.16;5049666;28;20711;-63
2022/07/19 01:57:21;;;;;;;5.78;1.92;;;;;;;19.03;79.29;95112.53;5048450;28;20233;-63
2022/07/19 01:59:46;;;;;;;7.07;1.85;;;;;;;19.06;79.31;95105.28;5049511;28;20277;-63
2022/07/19 02:02:12;;;;;;;2.78;1.80;;;;;;;19.03;79.29;95105.63;5049568;28;20227;-63
2022/07/19 02:04:37;;;;;;;3.63;1.83;;;;;;;19.21;79.19;95097.59;5049651;28;20211;-63
2022/07/19 02:07:03;;;;;;;3.00;1.73;;;;;;;19.13;79.15;95110.53;5048314;28;20263;-63
2022/07/19 02:09:29;;;;;;;5.32;1.92;;;;;;;18.96;80.32;95099.53;5049645;28;20181;-63
2022/07/19 02:11:54;;;;;;;4.20;2.10;;;;;;;19.09;79.31;95114.44;5049531;28;20212;-64
2022/07/19 02:14:20;;;;;;;6.65;2.13;;;;;;;19.14;79.03;95118.13;5049574;28;20704;-62
2022/07/19 02:16:45;;;;;;;2.45;1.80;;;;;;;19.06;79.99;95107.06;5049373;28;20201;-63
2022/07/19 02:19:11;;;;;;;2.45;1.90;;;;;;;19.06;79.66;95107.06;5048190;28;20197;-64
2022/07/19 02:21:37;;;;;;;3.15;1.98;;;;;;;19.07;80.09;95108.66;5049378;28;20621;-63
2022/07/19 02:24:05;;;;;;;2.80;2.00;;;;;;;19.05;80.46;95105.44;5049596;28;20181;-64
2022/07/19 02:26:31;;;;;;;3.33;1.80;;;;;;;19.08;80.54;95112.84;5049796;28;20213;-62
2022/07/19 02:28:57;;;;;;;3.28;1.88;;;;;;;19.14;78.59;95132.78;5049241;28;20189;-64
2022/07/19 02:31:22;;;;;;;4.28;1.30;;;;;;;18.98;79.85;95112.25;5049488;28;20278;-64
2022/07/19 02:33:48;;;;;;;1.70;1.60;;;;;;;19.02;80.54;95108.38;5049277;28;20591;-63
2022/07/19 02:36:13;;;;;;;3.45;1.73;;;;;;;19.08;78.93;95133.47;5049450;28;20547;-63
2022/07/19 02:38:40;;;;;;;3.20;1.85;;;;;;;18.98;79.15;95120.78;5047903;28;20193;-62
2022/07/19 02:41:06;;;;;;;3.33;2.17;;;;;;;19.04;78.70;95139.94;5049111;28;20209;-62
2022/07/19 02:43:32;;;;;;;2.17;1.67;;;;;;;18.82;80.28;95112.34;5047913;28;20277;-63
2022/07/19 02:45:58;;;;;;;2.40;1.90;;;;;;;18.61;82.23;95112.91;5049699;28;20271;-63
2022/07/19 02:48:24;;;;;;;3.40;1.92;;;;;;;18.75;81.29;95125.09;5052673;28;20271;-64
2022/07/19 02:50:49;;;;;;;6.88;2.33;;;;;;;18.72;80.66;95115.13;5052784;28;20216;-63
2022/07/19 02:53:15;;;;;;;3.22;1.63;;;;;;;18.57;81.86;95113.41;5052440;28;20276;-62
2022/07/19 02:55:41;;;;;;;4.43;1.65;;;;;;;18.60;82.13;95118.25;5051069;28;20209;-62
2022/07/19 02:58:07;;;;;;;1.85;1.60;;;;;;;18.66;82.34;95117.56;5052475;28;20265;-62
2022/07/19 03:00:33;;;;;;;5.90;2.30;;;;;;;18.63;82.55;95118.69;5052097;28;20217;-63
2022/07/19 03:05:42;;;;;;;5.60;1.60;;;;;;;18.47;83.04;95120.53;5052497;28;20347;-61
2022/07/19 03:08:08;;;;;;;2.97;1.65;;;;;;;18.56;82.45;95122.94;5052301;28;20265;-62
2022/07/19 03:10:33;;;;;;;3.75;1.90;;;;;;;18.60;82.36;95120.81;5052319;28;20580;-62
2022/07/19 03:12:59;;;;;;;3.88;1.73;;;;;;;18.62;82.64;95121.44;5052156;28;20181;-62
2022/07/19 03:15:25;;;;;;;4.15;1.80;;;;;;;18.38;83.86;95120.53;5052306;28;20235;-62
2022/07/19 03:17:50;;;;;;;2.95;2.03;;;;;;;18.57;82.92;95124.50;5052077;28;20186;-63
2022/07/19 03:20:16;;;;;;;2.45;1.77;;;;;;;18.55;83.54;95130.78;5052259;28;20200;-62
2022/07/19 03:22:42;;;;;;;4.32;1.73;;;;;;;18.53;83.11;95118.09;5052064;28;20181;-63
2022/07/19 03:25:08;;;;;;;2.33;1.75;;;;;;;18.60;83.23;95124.19;5052075;28;20612;-62
2022/07/19 03:27:34;;;;;;;4.07;1.80;;;;;;;18.62;82.15;95126.59;5051907;28;20212;-62
2022/07/19 03:29:59;;;;;;;2.35;1.65;;;;;;;18.66;82.61;95140.75;5051904;28;20208;-62
2022/07/19 03:32:25;;;;;;;2.10;1.88;;;;;;;18.54;83.52;95130.00;5051938;28;20185;-63
2022/07/19 03:34:50;;;;;;;6.63;2.13;;;;;;;18.54;83.62;95132.59;5052068;28;20658;-62
2022/07/19 03:37:16;;;;;;;3.08;1.60;;;;;;;18.54;84.04;95136.94;5051799;28;20746;-63
2022/07/19 03:39:42;;;;;;;3.40;1.80;;;;;;;18.34;86.16;95136.47;5051718;28;20192;-62
2022/07/19 03:42:08;;;;;;;4.13;1.92;;;;;;;18.19;87.29;95138.13;5050358;28;20214;-62
2022/07/19 03:44:33;;;;;;;4.70;1.88;;;;;;;18.14;88.40;95140.38;5050489;28;20247;-62
2022/07/19 03:46:58;;;;;;;2.67;1.92;;;;;;;18.05;88.95;95144.75;5051806;28;20212;-63
2022/07/19 03:49:24;;;;;;;5.55;1.85;;;;;;;18.27;87.62;95149.22;5051695;28;20671;-63
2022/07/19 03:51:49;;;;;;;4.43;1.80;;;;;;;18.16;88.38;95152.09;5051799;28;20350;-62
2022/07/19 03:54:16;;;;;;;3.50;2.05;;;;;;;18.05;89.45;95149.06;5051863;28;20539;-62
2022/07/19 03:56:41;;;;;;;3.35;2.20;;;;;;;18.25;88.71;95153.72;5049673;28;20213;-63
2022/07/19 03:59:07;;;;;;;4.60;2.20;;;;;;;18.51;87.63;95152.69;5051537;28;20193;-62
2022/07/19 04:01:32;;;;;;;4.20;1.90;;;;;;;18.61;87.06;95151.53;5051943;28;20630;-63
2022/07/19 04:03:59;;;;;;;3.97;2.10;;;;;;;18.70;86.57;95160.88;5051635;28;20622;-63
2022/07/19 04:06:24;;;;;;;3.40;2.00;;;;;;;18.61;87.39;95161.03;5051357;28;20691;-63
2022/07/19 04:08:50;;;;;;;3.92;2.17;;;;;;;18.48;88.33;95163.34;5051320;28;20210;-64
2022/07/19 04:11:15;;;;;;;4.47;2.28;;;;;;;18.56;87.91;95163.31;5051131;28;20273;-63
2022/07/19 04:13:41;;;;;;;5.28;2.30;;;;;;;18.69;86.78;95163.59;5051251;28;20182;-62
2022/07/19 04:16:06;;;;;;;4.28;1.83;;;;;;;18.74;85.44;95161.31;5051253;28;20322;-63
2022/07/19 04:18:32;;;;;;;3.65;1.80;;;;;;;18.76;84.51;95167.13;5051386;28;20223;-63
2022/07/19 04:20:58;;;;;;;3.90;2.00;;;;;;;18.81;84.10;95169.97;5051093;28;20221;-63
2022/07/19 04:23:23;;;;;;;3.75;1.63;;;;;;;18.91;83.08;95178.31;5051312;28;20181;-63
2022/07/19 04:25:49;;;;;;;2.33;1.95;;;;;;;18.90;83.43;95164.66;5051513;28;20605;-63
2022/07/19 04:28:14;;;;;;;1.95;1.63;;;;;;;18.87;84.11;95159.00;5051015;28;20691;-63
2022/07/19 04:30:39;;;;;;;2.40;2.00;;;;;;;18.89;85.61;95137.25;5058341;22;20317;-63
2022/07/19 04:33:05;;;;;;;2.15;1.70;;;;;;;19.10;83.10;95180.50;5050940;28;20687;-63
2022/07/19 04:35:30;;;;;;;4.63;1.92;;;;;;;19.16;84.60;95161.78;5050796;28;20308;-62
2022/07/19 04:37:56;;;;;;;2.45;2.00;;;;;;;19.20;83.00;95171.59;5050972;28;20251;-63
2022/07/19 04:40:21;;;;;;;3.22;1.92;;;;;;;19.25;83.01;95158.97;5050912;28;20666;-64
2022/07/19 04:42:47;;;;;;;3.40;1.80;;;;;;;19.39;81.93;95177.31;5051051;28;20204;-63
2022/07/19 04:45:12;;;;;;;6.07;2.35;;;;;;;19.51;82.13;95175.94;5049728;28;20199;-64
2022/07/19 04:47:38;;;;;;;4.40;1.75;;;;;;;19.47;83.23;95156.63;5050854;28;20661;-63
2022/07/19 04:50:04;;;;;;;4.97;2.10;;;;;;;19.67;81.18;95193.88;5050633;28;20209;-63
2022/07/19 04:52:29;;;;;;;2.92;1.85;;;;;;;19.70;80.38;95201.28;5050691;28;20201;-63
2022/07/19 04:54:54;;;;;;;3.83;2.15;;;;;;;19.86;80.52;95198.56;5049390;28;20174;-63
2022/07/19 04:57:20;;;;;;;2.35;2.15;;;;;;;20.01;78.73;95235.56;5050457;28;20538;-64
2022/07/19 04:59:45;;;;;;;2.55;2.05;;;;;;;20.09;80.75;95197.59;5050494;28;20561;-63
2022/07/19 05:02:12;;;;;;;6.88;2.08;;;;;;;20.13;79.86;95207.56;5059083;22;20355;-64
2022/07/19 05:04:37;;;;;;;5.38;1.90;;;;;;;20.18;79.33;95221.53;5050573;28;20178;-63
2022/07/19 05:07:02;;;;;;;5.90;2.00;;;;;;;20.31;82.60;95169.34;5050331;28;20761;-64
2022/07/19 05:09:29;;;;;;;6.35;2.08;;;;;;;20.44;77.21;95258.16;5050293;28;20181;-63
2022/07/19 05:11:55;;;;;;;8.73;2.38;;;;;;;20.43;77.51;95240.25;5050404;28;20209;-63
2022/07/19 05:14:21;;;;;;;9.32;2.13;;;;;;;20.46;80.33;95189.03;5049369;28;20270;-63
2022/07/19 05:16:49;;;;;;;5.28;1.73;;;;;;;20.47;79.56;95200.16;5050603;28;20695;-62
2022/07/19 05:19:16;;;;;;;5.85;2.10;;;;;;;20.49;77.53;95240.34;5050368;28;20208;-62
2022/07/19 05:21:42;;;;;;;5.03;2.88;;;;;;;20.36;79.75;95191.06;5050332;28;20205;-63
2022/07/19 05:24:07;;;;;;;9.48;2.00;;;;;;;20.35;79.04;95206.75;5050361;28;20193;-64
2022/07/19 05:26:33;;;;;;;3.08;2.13;;;;;;;20.39;80.40;95184.75;5050260;28;20703;-63
2022/07/19 05:29:00;;;;;;;3.42;2.03;;;;;;;20.51;78.38;95216.94;5058226;22;20598;-63
2022/07/19 05:31:25;;;;;;;3.28;2.10;;;;;;;20.52;77.24;95236.63;5050131;28;20224;-62
2022/07/19 05:33:51;;;;;;;3.80;2.63;;;;;;;20.48;76.41;95245.72;5050264;28;20185;-63
2022/07/19 05:36:17;;;;;;;7.75;2.20;;;;;;;20.48;78.91;95200.00;5049402;28;20203;-63
2022/07/19 05:38:42;;;;;;;2.70;1.95;;;;;;;20.66;78.40;95215.16;5048701;28;20272;-62
2022/07/19 05:41:10;;;;;;;4.40;2.33;;;;;;;20.85;79.32;95199.13;5048855;28;20236;-62
2022/07/19 05:43:38;;;;;;;6.57;2.00;;;;;;;20.97;76.90;95244.22;5048935;28;20190;-62
2022/07/19 05:46:04;;;;;;;7.38;2.13;;;;;;;21.13;75.43;95264.75;5050010;28;20695;-63
2022/07/19 05:48:30;;;;;;;3.92;2.30;;;;;;;21.18;75.20;95271.97;5049944;28;20667;-62
2022/07/19 05:50:57;;;;;;;11.70;2.63;;;;;;;21.25;73.02;95299.53;5049756;28;20671;-62
2022/07/19 05:53:22;;;;;;;6.15;2.38;;;;;;;21.17;76.78;95222.03;5049939;28;20182;-62
2022/07/19 05:55:48;;;;;;;5.80;2.45;;;;;;;21.24;74.00;95284.19;5049660;28;20263;-62
2022/07/19 05:58:13;;;;;;;4.40;2.10;;;;;;;21.27;73.26;95284.63;5050106;28;20255;-63
2022/07/19 06:01:17;;;;;;;6.15;2.00;;;;;;;21.29;73.35;95287.84;5049651;28;20600;-63
2022/07/19 06:03:24;;;;;;;8.23;2.53;;;;;;;21.35;73.46;95276.78;5049876;28;20194;-61
2022/07/19 06:05:50;;;;;;;4.95;2.88;;;;;;;21.55;72.13;95301.09;5049635;28;20704;-63
2022/07/19 06:08:16;;;;;;;7.32;2.65;;;;;;;21.50;71.67;95300.84;5049963;28;20289;-62
2022/07/19 06:10:48;;;;;;;5.57;2.53;;;;;;;21.39;71.71;95296.13;5049547;28;20703;-62
2022/07/19 06:13:14;;;;;;;4.68;2.30;;;;;;;21.40;72.92;95271.88;5049768;28;20189;-62
2022/07/19 06:15:40;;;;;;;7.13;2.63;;;;;;;21.50;74.32;95243.13;5049604;28;20305;-62
2022/07/19 06:18:05;;;;;;;4.43;2.95;;;;;;;21.67;73.58;95275.59;5048403;28;20652;-62
2022/07/19 06:20:30;;;;;;;5.00;2.42;;;;;;;21.88;77.86;95189.38;5050665;28;20200;-61
2022/07/19 06:22:56;;;;;;;5.35;2.90;;;;;;;22.19;70.93;95327.16;5053332;28;20202;-61
2022/07/19 06:25:22;;;;;;;3.15;2.13;;;;;;;22.20;71.96;95288.09;5053064;28;20209;-61
2022/07/19 06:27:47;;;;;;;6.53;2.28;;;;;;;22.55;74.33;95258.69;5053266;28;20562;-61
2022/07/19 06:30:13;;;;;;;8.15;2.67;;;;;;;22.70;66.01;95418.59;5051543;28;20197;-61
2022/07/19 06:32:38;;;;;;;6.05;2.03;;;;;;;22.51;69.15;95322.28;5052767;28;20205;-62
2022/07/19 06:35:04;;;;;;;5.45;2.17;;;;;;;22.46;67.79;95352.34;5052855;28;20652;-62
2022/07/19 06:37:29;;;;;;;3.95;2.25;;;;;;;22.45;67.62;95353.31;5052893;28;20212;-61
2022/07/19 06:39:55;;;;;;;5.55;2.17;;;;;;;22.64;69.47;95320.81;5052908;28;20268;-61
2022/07/19 06:42:21;;;;;;;7.32;2.55;;;;;;;22.69;67.36;95354.75;5052626;28;20687;-66
2022/07/19 06:44:46;;;;;;;6.00;1.73;;;;;;;22.86;69.39;95318.00;5052829;28;20260;-62
2022/07/19 06:47:12;;;;;;;7.13;2.20;;;;;;;23.04;68.31;95330.50;5051052;28;20682;-62
2022/07/19 06:49:37;;;;;;;5.00;2.13;;;;;;;23.19;67.63;95341.56;5060228;22;20229;-62
2022/07/19 06:52:03;;;;;;;7.00;2.03;;;;;;;23.47;67.67;95349.34;5052523;28;20214;-62
2022/07/19 06:54:28;;;;;;;5.43;2.10;;;;;;;23.62;66.64;95361.22;5052434;28;20193;-62
2022/07/19 06:56:54;;;;;;;5.75;2.95;;;;;;;23.66;62.91;95440.31;5052560;28;20254;-62
2022/07/19 06:59:20;;;;;;;4.80;2.50;;;;;;;23.64;65.73;95374.81;5052489;28;20213;-62
2022/07/19 07:01:46;;;;;;;6.10;2.55;;;;;;;23.92;63.12;95439.66;5052390;28;20314;-62
2022/07/19 07:04:11;;;;;;;8.65;2.75;;;;;;;23.68;62.31;95424.56;5060270;22;20845;-62
2022/07/19 07:06:37;;;;;;;7.85;2.85;;;;;;;23.75;63.83;95402.03;5067765;28;20288;-62
2022/07/19 07:09:04;;;;;;;11.43;2.97;;;;;;;23.92;62.73;95422.28;5052445;28;20575;-63
2022/07/19 07:11:29;;;;;;;6.35;2.10;;;;;;;23.91;61.90;95430.28;5052199;28;20210;-63
2022/07/19 07:13:55;;;;;;;8.52;2.30;;;;;;;23.92;59.81;95481.22;5052537;28;20267;-63
2022/07/19 07:16:21;;;;;;;6.40;1.90;;;;;;;23.71;61.81;95403.41;5063311;22;20594;-62
2022/07/19 07:18:47;;;;;;;4.45;2.17;;;;;;;23.61;62.49;95387.38;5052127;28;20217;-62
2022/07/19 07:21:12;;;;;;;4.10;1.98;;;;;;;23.68;64.30;95344.03;5052238;28;20292;-61
2022/07/19 07:23:37;;;;;;;4.80;2.13;;;;;;;23.74;62.77;95387.44;5052084;28;20211;-60
2022/07/19 07:26:03;;;;;;;3.25;2.42;;;;;;;24.03;58.69;95483.34;5052169;28;20335;-62
2022/07/19 07:28:29;;;;;;;7.10;2.30;;;;;;;24.01;60.05;95451.50;5052007;28;20190;-61
2022/07/19 07:30:55;;;;;;;6.78;2.03;;;;;;;23.98;59.52;95454.47;5051596;28;20236;-62
2022/07/19 07:33:20;;;;;;;3.88;2.20;;;;;;;24.05;60.97;95406.00;5050784;28;20268;-63
2022/07/19 07:35:46;;;;;;;5.57;2.10;;;;;;;24.13;56.33;95509.78;5051958;28;20304;-61
2022/07/19 07:38:11;;;;;;;6.22;2.10;;;;;;;23.91;59.14;95419.91;5052016;28;20199;-61
2022/07/19 07:40:37;;;;;;;5.53;2.20;;;;;;;24.05;61.05;95380.00;5061625;22;20391;-63
2022/07/19 07:43:02;;;;;;;7.90;3.10;;;;;;;24.21;57.66;95478.44;5051904;28;20664;-61
2022/07/19 07:45:30;;;;;;;3.70;2.40;;;;;;;24.21;59.33;95425.63;5051604;28;20201;-62
2022/07/19 07:47:55;;;;;;;7.68;2.80;;;;;;;24.37;58.41;95441.69;5051754;28;20213;-61
2022/07/19 07:50:28;;;;;;;3.78;2.33;;;;;;;24.48;58.27;95435.94;5051403;28;20216;-62
2022/07/19 07:52:54;;;;;;;7.18;2.70;;;;;;;24.37;53.64;95537.09;5051628;28;20242;-61
2022/07/19 07:55:19;;;;;;;4.30;2.55;;;;;;;24.51;55.46;95499.75;5051463;28;20292;-63
2022/07/19 07:57:45;;;;;;;4.40;1.92;;;;;;;24.46;54.45;95510.72;5051597;28;20660;-63
2022/07/19 08:00:13;;;;;;;3.10;1.90;;;;;;;24.47;51.05;95595.53;5051527;28;20195;-62
2022/07/19 08:02:45;;;;;;;3.25;2.00;;;;;;;24.30;51.53;95563.03;5049914;28;20576;-62
2022/07/19 08:05:11;;;;;;;4.18;2.00;;;;;;;24.27;55.00;95456.84;5051364;28;20264;-62
2022/07/19 08:07:37;;;;;;;6.45;2.10;;;;;;;24.39;55.76;95426.72;5051483;28;20217;-61
2022/07/19 08:10:06;;;;;;;4.53;2.17;;;;;;;24.47;55.13;95452.53;5051336;28;20209;-61
2022/07/19 08:12:32;;;;;;;3.42;2.33;;;;;;;24.74;54.65;95456.84;5051599;28;20247;-61
2022/07/19 08:14:58;;;;;;;2.42;2.22;;;;;;;24.84;54.28;95483.28;5051336;28;20189;-61
2022/07/19 08:17:24;;;;;;;2.78;1.95;;;;;;;24.73;49.04;95629.53;5051418;28;20189;-62
2022/07/19 08:19:49;;;;;;;1.75;1.50;;;;;;;24.81;46.63;95514.88;5051239;28;20620;-62
2022/07/19 08:22:18;;;;;;;2.95;1.58;;;;;;;24.69;49.23;95407.16;5051253;28;20205;-61
2022/07/19 08:24:44;;;;;;;2.65;1.70;;;;;;;24.68;46.70;95428.19;5051116;28;20193;-62
2022/07/19 08:27:10;;;;;;;5.07;1.80;;;;;;;24.67;46.90;95419.56;5051076;28;20217;-61
2022/07/19 08:29:36;;;;;;;4.10;2.08;;;;;;;24.81;47.63;95400.41;5051019;28;20307;-61
2022/07/19 08:32:02;;;;;;;7.95;4.88;;;;;;;24.78;49.25;95351.41;5050923;28;20685;-62
2022/07/19 08:34:28;;;;;;;5.80;2.20;;;;;;;24.92;50.77;95342.59;5051023;28;20265;-60
2022/07/19 08:36:53;;;;;;;4.97;1.88;;;;;;;25.05;45.52;95437.28;5050775;28;20767;-61
2022/07/19 08:39:19;;;;;;;5.40;1.77;;;;;;;25.14;46.58;95404.81;5051359;28;20542;-63
2022/07/19 08:41:46;;;;;;;4.70;1.90;;;;;;;25.38;46.14;95410.22;5050820;28;20205;-61
2022/07/19 08:44:12;;;;;;;6.03;2.00;;;;;;;25.44;47.02;95380.78;5050377;28;20200;-62
2022/07/19 08:46:41;;;;;;;8.68;2.28;;;;;;;24.98;45.26;95404.25;5050736;28;20197;-62
2022/07/19 08:49:08;;;;;;;3.85;1.88;;;;;;;24.85;44.43;95422.44;5050836;28;20264;-61
2022/07/19 08:51:34;;;;;;;10.35;2.38;;;;;;;25.07;46.82;95370.22;5050706;28;20296;-63
2022/07/19 08:54:01;;;;;;;8.70;2.20;;;;;;;25.38;49.38;95320.88;5050779;28;20202;-63
2022/07/19 08:59:12;;;;;;;2.30;1.92;;;;;;;25.45;44.06;95416.25;5050688;28;20204;-63
2022/07/19 09:01:37;;;;;;;2.42;1.77;;;;;;;25.62;43.30;95427.03;5051020;28;20588;-62
2022/07/19 09:04:05;;;;;;;2.92;1.42;;;;;;;25.53;45.64;95381.38;5049255;28;20194;-62
2022/07/19 09:06:58;;;;;;;3.40;2.20;;;;;;;25.66;47.92;95332.66;5050875;28;20283;-62
2022/07/19 09:09:28;;;;;;;5.97;2.10;;;;;;;25.69;45.08;95389.53;5048734;28;20208;-62
2022/07/19 09:11:56;;;;;;;7.18;1.85;;;;;;;25.71;44.17;95392.75;5050296;28;20205;-63
2022/07/19 09:14:40;;;;;;;2.70;1.77;;;;;;;25.70;43.49;95417.22;5050448;28;20729;-61
2022/07/19 09:17:12;;;;;;;3.65;1.70;;;;;;;25.71;44.04;95391.97;5050358;28;20243;-62
2022/07/19 09:19:43;;;;;;;4.03;1.83;;;;;;;25.85;44.08;95390.91;5048982;28;20658;-63
2022/07/19 09:22:18;;;;;;;7.95;2.22;;;;;;;25.81;45.57;95350.63;5050340;28;20260;-63
2022/07/19 09:24:51;;;;;;;6.20;1.88;;;;;;;25.96;40.76;95442.38;5050224;28;20185;-62
2022/07/19 09:27:22;;;;;;;2.58;1.65;;;;;;;25.98;42.62;95401.28;5050495;28;20714;-62
2022/07/19 09:29:53;;;;;;;3.88;1.73;;;;;;;25.99;44.31;95363.81;5050262;28;20282;-62
2022/07/19 09:32:20;;;;;;;4.28;1.98;;;;;;;26.14;43.98;95366.19;5050228;28;20216;-62
2022/07/19 09:34:55;;;;;;;4.05;1.75;;;;;;;26.18;42.12;95409.06;5050225;28;20205;-63
2022/07/19 09:37:23;;;;;;;2.15;1.67;;;;;;;26.16;42.45;95390.22;5050168;28;20212;-62
2022/07/19 09:39:54;;;;;;;1.95;1.70;;;;;;;26.43;41.81;95405.53;5050239;28;20190;-62
2022/07/19 09:42:36;;;;;;;2.55;1.50;;;;;;;26.65;41.13;95411.22;5048684;28;20240;-62
2022/07/19 09:45:07;;;;;;;2.30;1.60;;;;;;;26.37;40.59;95418.59;5049952;28;20264;-63
2022/07/19 09:47:42;;;;;;;1.35;1.25;;;;;;;26.28;40.53;95402.38;5048612;28;20627;-62
2022/07/19 09:50:11;;;;;;;2.08;1.30;;;;;;;26.63;39.43;95434.13;5048586;28;20212;-63
2022/07/19 09:52:37;;;;;;;2.60;1.70;;;;;;;26.40;37.76;95452.09;5049939;28;20672;-63
2022/07/19 09:55:04;;;;;;;4.78;1.60;;;;;;;26.25;40.31;95392.38;5048762;28;20197;-63
2022/07/19 09:57:35;;;;;;;7.35;2.05;;;;;;;26.42;42.13;95343.94;5049863;28;20186;-62
2022/07/19 10:00:03;;;;;;;2.00;1.75;;;;;;;26.77;39.65;95404.34;5049809;28;20204;-61
2022/07/19 10:02:30;;;;;;;4.20;1.73;;;;;;;26.80;41.44;95358.75;5048551;28;20193;-62
2022/07/19 10:04:57;;;;;;;1.75;1.35;;;;;;;26.77;40.50;95378.25;5065285;28;20238;-63
2022/07/19 10:07:23;;;;;;;1.98;1.40;;;;;;;26.77;41.42;95359.19;5049810;28;20173;-62
2022/07/19 10:09:50;;;;;;;3.88;1.63;;;;;;;26.83;38.88;95403.50;5049745;28;20189;-62
2022/07/19 10:12:16;;;;;;;4.60;1.50;;;;;;;26.61;39.04;95395.19;5049717;28;20204;-63
2022/07/19 10:14:43;;;;;;;1.63;1.35;;;;;;;26.72;38.61;95398.16;5049754;28;20703;-63
2022/07/19 10:17:30;;;;;;;3.90;1.25;;;;;;;26.82;38.09;95403.72;5049585;28;20711;-62
2022/07/19 10:19:57;;;;;;;2.35;1.67;;;;;;;27.13;40.33;95348.88;5049893;28;20331;-64
2022/07/19 10:22:25;;;;;;;4.82;1.85;;;;;;;27.31;40.38;95341.06;5049424;28;20229;-62
2022/07/19 10:24:59;;;;;;;3.55;1.92;;;;;;;27.04;39.67;95365.81;5049540;28;20251;-63
2022/07/19 10:27:25;;;;;;;1.98;1.48;;;;;;;26.26;39.88;95349.63;5049470;28;20225;-63
2022/07/19 10:29:52;;;;;;;1.70;1.60;;;;;;;26.38;40.33;95344.59;5049547;28;20212;-62
2022/07/19 10:32:26;;;;;;;4.65;1.83;;;;;;;26.43;42.09;95298.59;5049370;28;20213;-62
2022/07/19 10:35:17;;;;;;;4.15;1.52;;;;;;;26.76;41.56;95321.88;5049630;28;20185;-63
2022/07/19 10:37:51;;;;;;;2.95;1.90;;;;;;;26.73;43.49;95275.31;5049794;28;20228;-62
2022/07/19 10:40:43;;;;;;;2.78;1.73;;;;;;;26.82;40.89;95333.25;5048158;28;20699;-63
2022/07/19 10:43:11;;;;;;;6.53;1.50;;;;;;;26.47;41.20;95317.22;5049751;28;20200;-63
2022/07/19 10:45:39;;;;;;;2.83;1.80;;;;;;;26.59;42.36;95300.69;5049263;28;20228;-63
2022/07/19 10:48:11;;;;;;;5.88;2.03;;;;;;;27.06;41.45;95319.38;5049244;28;20204;-62
2022/07/19 10:53:31;;;;;;;3.60;1.77;;;;;;;27.19;40.82;95316.66;5056358;22;20727;-62
2022/07/19 10:56:17;;;;;;;1.83;1.60;;;;;;;27.15;38.77;95365.13;5049301;28;20206;-61
2022/07/19 10:58:50;;;;;;;2.08;1.98;;;;;;;27.17;39.19;95342.19;5049081;28;20196;-63
2022/07/19 11:01:18;;;;;;;3.45;2.85;;;;;;;27.37;39.75;95341.00;5049217;28;20259;-64
2022/07/19 11:03:48;;;;;;;3.35;1.85;;;;;;;27.64;39.35;95344.16;5049174;28;20186;-62
2022/07/19 11:06:27;;;;;;;5.20;1.85;;;;;;;28.20;39.54;95344.69;5049697;28;20755;-63
2022/07/19 11:08:58;;;;;;;4.63;2.10;;;;;;;28.31;38.21;95355.41;5052478;28;20291;-62
2022/07/19 11:11:26;;;;;;;3.58;1.77;;;;;;;28.81;37.19;95367.19;5052284;28;20256;-63
2022/07/19 11:13:54;;;;;;;2.90;1.75;;;;;;;28.51;36.78;95361.97;5051451;28;20174;-62
2022/07/19 11:16:24;;;;;;;2.65;1.90;;;;;;;28.27;38.23;95328.09;5052315;28;20213;-63
2022/07/19 11:18:49;;;;;;;3.88;2.20;;;;;;;27.68;36.39;95368.03;5052473;28;20177;-63
2022/07/19 11:21:16;;;;;;;4.90;2.17;;;;;;;27.18;38.79;95315.06;5052412;28;20712;-62
2022/07/19 11:23:43;;;;;;;3.08;1.83;;;;;;;26.69;41.23;95260.25;5052403;28;20185;-62
2022/07/19 11:26:11;;;;;;;4.88;2.08;;;;;;;26.47;41.36;95265.06;5050884;28;20700;-61
2022/07/19 11:28:38;;;;;;;6.03;2.00;;;;;;;26.46;40.99;95261.63;5050834;28;20258;-63
2022/07/19 11:31:24;;;;;;;3.50;1.75;;;;;;;26.87;37.43;95336.81;5052031;28;20225;-63
2022/07/19 11:33:53;;;;;;;4.10;2.03;;;;;;;27.43;37.48;95349.81;5050619;28;20694;-65
2022/07/19 11:36:20;;;;;;;2.58;1.63;;;;;;;27.12;38.56;95314.13;5052009;28;20210;-63
2022/07/19 11:38:48;;;;;;;2.40;1.90;;;;;;;26.98;39.18;95294.38;5052178;28;20186;-63
2022/07/19 11:41:17;;;;;;;2.70;2.05;;;;;;;26.62;40.94;95247.28;5051998;28;20225;-62